createdAt,value
2022-10-18T00:01:08.825Z,100403.89
2022-10-18T00:06:11.210Z,100398.48
2022-10-18T00:08:39.936Z,100397.45
2022-10-18T00:11:08.177Z,100395.34
2022-10-18T00:13:37.077Z,100402.70
2022-10-18T00:16:10.154Z,100400.24
2022-10-18T00:18:38.120Z,100397.63
2022-10-18T00:21:09.959Z,100394.82
2022-10-18T00:23:38.051Z,100392.91
2022-10-18T00:26:11.857Z,100390.45
2022-10-18T00:28:41.089Z,100389.75
2022-10-18T00:31:27.456Z,100391.54
2022-10-18T00:33:58.292Z,100390.15
2022-10-18T00:36:29.003Z,100393.49
2022-10-18T00:38:57.899Z,100391.59
2022-10-18T00:41:31.006Z,100391.77
2022-10-18T00:44:26.728Z,100395.30
2022-10-18T00:47:08.724Z,100389.34
2022-10-18T00:49:42.734Z,100388.45
2022-10-18T00:52:35.791Z,100375.48
2022-10-18T00:55:06.498Z,100379.16
2022-10-18T00:57:35.501Z,100375.15
2022-10-18T01:00:09.865Z,100373.73
2022-10-18T01:02:40.366Z,100371.11
2022-10-18T01:05:10.916Z,100370.42
2022-10-18T01:08:28.425Z,100368.66
2022-10-18T01:11:05.303Z,100365.34
2022-10-18T01:13:52.116Z,100362.73
2022-10-18T01:16:32.781Z,100362.21
2022-10-18T01:19:16.109Z,100359.74
2022-10-18T01:21:54.528Z,100359.21
2022-10-18T01:25:00.793Z,100360.09
2022-10-18T01:28:13.610Z,100358.15
2022-10-18T01:30:50.592Z,100354.82
2022-10-18T01:33:43.960Z,100361.48
2022-10-18T01:36:15.101Z,100358.71
2022-10-18T01:38:45.081Z,100356.42
2022-10-18T01:41:16.172Z,100356.27
2022-10-18T01:43:46.994Z,100352.06
2022-10-18T01:46:20.387Z,100348.04
2022-10-18T01:48:49.380Z,100343.13
2022-10-18T01:51:29.023Z,100340.84
2022-10-18T01:53:57.301Z,100343.11
2022-10-18T01:56:28.770Z,100338.73
2022-10-18T01:59:34.709Z,100340.31
2022-10-18T02:02:08.720Z,100335.73
2022-10-18T02:04:51.846Z,100332.78
2022-10-18T02:07:34.560Z,100328.94
2022-10-18T02:12:51.695Z,100322.81
2022-10-18T02:15:38.301Z,100326.14
2022-10-18T02:18:12.515Z,100324.05
2022-10-18T02:20:40.487Z,100326.84
2022-10-18T02:23:10.911Z,100325.44
2022-10-18T02:25:39.393Z,100325.79
2022-10-18T02:28:07.685Z,100326.66
2022-10-18T02:30:44.853Z,100328.94
2022-10-18T02:33:31.667Z,100329.30
2022-10-18T02:36:24.107Z,100326.49
2022-10-18T02:38:56.376Z,100329.66
2022-10-18T02:41:27.007Z,100332.64
2022-10-18T02:43:55.079Z,100333.86
2022-10-18T02:46:23.826Z,100335.09
2022-10-18T02:48:52.041Z,100336.15
2022-10-18T02:51:20.112Z,100334.04
2022-10-18T02:53:48.082Z,100338.08
2022-10-18T02:56:16.869Z,100337.55
2022-10-18T02:58:44.941Z,100341.58
2022-10-18T03:01:13.074Z,100340.70
2022-10-18T03:03:41.186Z,100341.23
2022-10-18T03:06:09.461Z,100340.02
2022-10-18T03:08:38.045Z,100343.33
2022-10-18T03:11:06.427Z,100338.95
2022-10-18T03:13:34.626Z,100338.63
2022-10-18T03:16:02.876Z,100339.65
2022-10-18T03:18:31.048Z,100338.45
2022-10-18T03:21:03.830Z,100337.58
2022-10-18T03:23:31.901Z,100344.75
2022-10-18T03:25:59.975Z,100340.02
2022-10-18T03:28:28.136Z,100339.48
2022-10-18T03:31:04.603Z,100341.09
2022-10-18T03:33:33.400Z,100344.05
2022-10-18T03:36:01.476Z,100344.41
2022-10-18T03:38:29.443Z,100341.43
2022-10-18T03:40:57.515Z,100340.55
2022-10-18T03:43:25.483Z,100346.34
2022-10-18T03:45:53.554Z,100346.69
2022-10-18T03:48:21.525Z,100351.05
2022-10-18T03:50:49.492Z,100354.05
2022-10-18T03:53:17.568Z,100354.40
2022-10-18T03:55:45.532Z,100351.24
2022-10-18T03:58:13.605Z,100355.79
2022-10-18T04:00:41.676Z,100353.69
2022-10-18T04:03:10.259Z,100360.17
2022-10-18T04:05:38.331Z,100358.95
2022-10-18T04:08:06.402Z,100361.00
2022-10-18T04:10:34.371Z,100356.28
2022-10-18T04:13:02.341Z,100357.52
2022-10-18T04:15:30.412Z,100355.75
2022-10-18T04:17:58.674Z,100354.34
2022-10-18T04:20:27.528Z,100355.91
2022-10-18T04:22:57.697Z,100358.36
2022-10-18T04:25:26.076Z,100358.00
2022-10-18T04:27:54.045Z,100356.09
2022-10-18T04:30:22.014Z,100357.66
2022-10-18T04:32:49.982Z,100355.38
2022-10-18T04:35:18.159Z,100353.09
2022-10-18T04:37:46.126Z,100353.27
2022-10-18T04:40:14.094Z,100349.05
2022-10-18T04:42:42.063Z,100348.70
2022-10-18T04:45:11.239Z,100348.35
2022-10-18T04:47:39.436Z,100344.67
2022-10-18T04:50:08.127Z,100345.18
2022-10-18T04:52:36.162Z,100347.63
2022-10-18T04:55:04.820Z,100344.14
2022-10-18T04:57:33.046Z,100343.79
2022-10-18T05:00:01.347Z,100347.11
2022-10-18T05:02:29.712Z,100349.55
2022-10-18T05:04:57.984Z,100349.56
2022-10-18T05:07:26.157Z,100350.60
2022-10-18T05:09:54.227Z,100353.56
2022-10-18T05:12:22.606Z,100351.98
2022-10-18T05:14:50.677Z,100355.45
2022-10-18T05:17:18.670Z,100358.77
2022-10-18T05:19:46.671Z,100361.56
2022-10-18T05:22:15.000Z,100364.04
2022-10-18T05:24:42.963Z,100362.30
2022-10-18T05:27:11.342Z,100365.95
2022-10-18T05:29:39.312Z,100366.66
2022-10-18T05:32:07.279Z,100363.33
2022-10-18T05:34:35.454Z,100361.05
2022-10-18T05:37:03.525Z,100359.84
2022-10-18T05:39:31.598Z,100362.64
2022-10-18T05:42:00.282Z,100365.62
2022-10-18T05:44:28.363Z,100363.69
2022-10-18T05:46:56.424Z,100365.98
2022-10-18T05:49:24.598Z,100368.96
2022-10-18T05:51:52.773Z,100371.59
2022-10-18T05:54:21.253Z,100371.60
2022-10-18T05:56:49.222Z,100373.00
2022-10-18T05:59:17.200Z,100377.02
2022-10-18T06:01:45.776Z,100381.42
2022-10-18T06:04:13.743Z,100378.44
2022-10-18T06:06:41.818Z,100383.85
2022-10-18T06:09:10.195Z,100387.36
2022-10-18T06:11:38.274Z,100385.62
2022-10-18T06:14:07.976Z,100390.73
2022-10-18T06:19:05.346Z,100391.61
2022-10-18T06:21:33.417Z,100394.41
2022-10-18T06:24:01.489Z,100394.77
2022-10-18T06:26:29.663Z,100396.53
2022-10-18T06:28:57.796Z,100393.20
2022-10-18T06:31:26.113Z,100391.47
2022-10-18T06:33:57.098Z,100396.37
2022-10-18T06:36:25.534Z,100398.11
2022-10-18T06:38:54.659Z,100394.25
2022-10-18T06:41:23.314Z,100397.24
2022-10-18T06:43:53.715Z,100399.70
2022-10-18T06:46:21.810Z,100397.80
2022-10-18T06:48:49.885Z,100397.11
2022-10-18T06:51:18.569Z,100396.77
2022-10-18T06:53:59.104Z,100402.38
2022-10-18T06:56:27.818Z,100403.78
2022-10-18T06:58:55.806Z,100402.38
2022-10-18T07:01:23.915Z,100399.77
2022-10-18T07:03:53.643Z,100402.73
2022-10-18T07:06:23.585Z,100402.92
2022-10-18T07:08:55.446Z,100401.85
2022-10-18T07:11:26.355Z,100396.07
2022-10-18T07:14:01.008Z,100400.96
2022-10-18T07:16:29.539Z,100401.48
2022-10-18T07:18:57.663Z,100399.90
2022-10-18T07:21:26.863Z,100400.05
2022-10-18T07:23:56.775Z,100401.45
2022-10-18T07:26:30.791Z,100392.50
2022-10-18T07:29:02.531Z,100391.09
2022-10-18T07:31:30.616Z,100388.27
2022-10-18T07:33:58.789Z,100390.17
2022-10-18T07:36:27.224Z,100390.52
2022-10-18T07:38:55.241Z,100386.65
2022-10-18T07:41:23.516Z,100380.48
2022-10-18T07:43:53.125Z,100383.27
2022-10-18T07:46:22.526Z,100383.60
2022-10-18T07:48:51.550Z,100385.15
2022-10-18T07:51:22.559Z,100385.14
2022-10-18T07:53:50.735Z,100384.23
2022-10-18T07:56:21.951Z,100386.13
2022-10-18T07:58:52.819Z,100383.46
2022-10-18T08:01:22.664Z,100377.64
2022-10-18T08:03:51.594Z,100373.75
2022-10-18T08:06:21.292Z,100375.65
2022-10-18T08:08:49.714Z,100374.58
2022-10-18T08:11:21.568Z,100372.96
2022-10-18T08:13:49.846Z,100374.83
2022-10-18T08:16:35.738Z,100371.41
2022-10-18T08:19:04.523Z,100363.28
2022-10-18T08:21:32.705Z,100359.36
2022-10-18T08:24:00.671Z,100360.34
2022-10-18T08:26:28.634Z,100358.34
2022-10-18T08:29:17.746Z,100354.92
2022-10-18T08:31:44.744Z,100352.23
2022-10-18T08:34:18.715Z,100346.69
2022-10-18T08:36:47.851Z,100343.45
2022-10-18T08:39:15.819Z,100336.70
2022-10-18T08:41:54.336Z,100337.13
2022-10-18T08:44:30.606Z,100332.13
2022-10-18T08:47:11.679Z,100335.38
2022-10-18T08:49:51.039Z,100328.42
2022-10-18T08:52:45.244Z,100323.05
2022-10-18T08:55:27.806Z,100323.63
2022-10-18T08:57:58.290Z,100320.86
2022-10-18T09:00:34.703Z,100311.96
2022-10-18T09:03:40.928Z,100303.58
2022-10-18T09:06:25.526Z,100305.55
2022-10-18T09:09:08.931Z,100303.27
2022-10-18T09:12:32.895Z,100295.89
2022-10-18T09:15:20.569Z,100291.45
2022-10-18T09:17:54.480Z,100284.01
2022-10-18T09:20:46.613Z,100283.46
2022-10-18T09:23:23.872Z,100280.27
2022-10-18T09:26:00.857Z,100275.30
2022-10-18T09:28:58.261Z,100266.11
2022-10-18T09:31:32.558Z,100262.60
2022-10-18T09:34:08.616Z,100261.58
2022-10-18T09:36:39.113Z,100263.88
2022-10-18T09:39:12.543Z,100257.41
2022-10-18T09:41:49.827Z,100252.16
2022-10-18T09:44:25.682Z,100247.80
2022-10-18T09:47:02.768Z,100246.20
2022-10-18T09:49:40.564Z,100243.64
2022-10-18T09:52:33.899Z,100239.16
2022-10-18T09:55:13.673Z,100232.12
2022-10-18T09:57:46.968Z,100229.84
2022-10-18T10:00:48.833Z,100223.62
2022-10-18T10:03:17.107Z,100219.11
2022-10-18T10:05:45.920Z,100210.64
2022-10-18T10:08:13.967Z,100207.45
2022-10-18T10:10:47.574Z,100212.65
2022-10-18T10:13:24.547Z,100208.23
2022-10-18T10:16:00.400Z,100198.88
2022-10-18T10:18:34.514Z,100190.89
2022-10-18T10:21:15.184Z,100186.54
2022-10-18T10:23:54.106Z,100181.73
2022-10-18T10:26:23.920Z,100175.31
2022-10-18T10:28:52.468Z,100172.54
2022-10-18T10:31:32.139Z,100173.57
2022-10-18T10:34:03.189Z,100175.48
2022-10-18T10:36:32.789Z,100169.30
2022-10-18T10:39:12.420Z,100168.45
2022-10-18T10:41:41.523Z,100159.69
2022-10-18T10:44:34.588Z,100153.42
2022-10-18T10:47:03.169Z,100148.20
2022-10-18T10:49:46.193Z,100143.40
2022-10-18T10:52:27.243Z,100141.77
2022-10-18T10:55:23.595Z,100139.11
2022-10-18T10:57:56.419Z,100131.01
2022-10-18T11:00:39.922Z,100125.78
2022-10-18T11:03:28.396Z,100116.46
2022-10-18T11:06:01.086Z,100112.10
2022-10-18T11:08:31.221Z,100111.52
2022-10-18T11:11:16.918Z,100107.27
2022-10-18T11:13:57.057Z,100104.77
2022-10-18T11:17:22.321Z,100103.73
2022-10-18T11:19:56.228Z,100097.92
2022-10-18T11:22:29.143Z,100095.53
2022-10-18T11:24:57.491Z,100097.19
2022-10-18T11:27:38.157Z,100097.59
2022-10-18T11:30:21.284Z,100091.14
2022-10-18T11:33:10.346Z,100087.52
2022-10-18T11:36:03.928Z,100084.38
2022-10-18T11:38:47.346Z,100080.40
2022-10-18T11:41:27.296Z,100075.48
2022-10-18T11:44:03.669Z,100069.64
2022-10-18T11:46:57.026Z,100065.41
2022-10-18T11:49:45.168Z,100059.23
2022-10-18T11:52:33.207Z,100053.30
2022-10-18T11:55:16.230Z,100048.52
2022-10-18T11:57:57.036Z,100044.48
2022-10-18T12:00:39.508Z,100036.05
2022-10-18T12:03:36.252Z,100035.91
2022-10-18T12:06:12.486Z,100029.90
2022-10-18T12:08:46.631Z,100028.86
2022-10-18T12:11:30.980Z,100023.88
2022-10-18T12:14:21.683Z,100015.41
2022-10-18T12:16:53.606Z,100015.23
2022-10-18T12:19:30.114Z,100009.73
2022-10-18T12:22:11.191Z,100007.42
2022-10-18T12:24:39.895Z,100004.79
2022-10-18T12:27:13.580Z,99996.47
2022-10-18T12:29:53.837Z,99995.03
2022-10-18T12:32:27.745Z,99990.42
2022-10-18T12:35:04.929Z,99987.44
2022-10-18T12:37:57.996Z,99991.84
2022-10-18T12:40:32.714Z,99988.15
2022-10-18T12:43:09.471Z,99987.30
2022-10-18T12:45:51.083Z,99986.55
2022-10-18T12:48:42.661Z,99983.55
2022-10-18T12:51:17.838Z,99980.73
2022-10-18T12:53:52.875Z,99978.79
2022-10-18T12:56:29.862Z,99971.87
2022-10-18T12:59:16.166Z,99973.64
2022-10-18T13:01:53.415Z,99970.56
2022-10-18T13:04:27.568Z,99967.27
2022-10-18T13:07:03.127Z,99961.20
2022-10-18T13:09:39.260Z,99955.20
2022-10-18T13:12:10.204Z,99954.35
2022-10-18T13:15:25.594Z,99946.36
2022-10-18T13:18:19.764Z,99943.67
2022-10-18T13:21:03.297Z,99938.17
2022-10-18T13:23:43.251Z,99937.30
2022-10-18T13:26:32.208Z,99936.77
2022-10-18T13:29:09.374Z,99933.08
2022-10-18T13:31:37.771Z,99928.67
2022-10-18T13:34:28.252Z,99931.15
2022-10-18T13:37:06.683Z,99921.75
2022-10-18T13:39:35.292Z,99918.23
2022-10-18T13:42:03.234Z,99910.11
2022-10-18T13:44:40.369Z,99912.43
2022-10-18T13:47:32.740Z,99908.81
2022-10-18T13:50:03.633Z,99902.14
2022-10-18T13:52:44.160Z,99900.17
2022-10-18T13:55:36.296Z,99895.20
2022-10-18T13:59:05.871Z,99891.67
2022-10-18T14:01:54.004Z,99886.08
2022-10-18T14:05:16.583Z,99882.05
2022-10-18T14:07:51.396Z,99876.23
2022-10-18T14:11:03.274Z,99874.46
2022-10-18T14:13:43.792Z,99859.62
2022-10-18T14:16:50.365Z,99862.10
2022-10-18T14:19:39.610Z,99859.05
2022-10-18T14:22:11.903Z,99855.31
2022-10-18T14:24:45.818Z,99847.02
2022-10-18T14:27:34.601Z,99844.25
2022-10-18T14:30:11.241Z,99837.10
2022-10-18T14:32:48.117Z,99828.40
2022-10-18T14:35:38.388Z,99823.46
2022-10-18T14:38:13.965Z,99824.65
2022-10-18T14:40:42.028Z,99822.67
2022-10-18T14:43:14.095Z,99823.34
2022-10-18T14:45:43.189Z,99825.79
2022-10-18T14:48:22.083Z,99820.98
2022-10-18T14:50:59.504Z,99806.60
2022-10-18T14:53:39.454Z,99810.42
2022-10-18T14:56:08.378Z,99802.65
2022-10-18T14:58:38.262Z,99801.70
2022-10-18T15:01:06.811Z,99801.17
2022-10-18T15:03:36.141Z,99792.35
2022-10-18T15:06:06.020Z,99789.70
2022-10-18T15:08:40.581Z,99793.44
2022-10-18T15:11:13.353Z,99784.13
2022-10-18T15:13:53.722Z,99781.90
2022-10-18T15:16:26.271Z,99781.27
2022-10-18T15:19:07.990Z,99783.44
2022-10-18T15:21:36.472Z,99780.48
2022-10-18T15:24:26.454Z,99784.42
2022-10-18T15:26:56.779Z,99784.09
2022-10-18T15:29:25.142Z,99780.42
2022-10-18T15:31:53.127Z,99777.09
2022-10-18T15:34:27.937Z,99775.52
2022-10-18T15:36:57.031Z,99775.54
2022-10-18T15:39:27.989Z,99775.69
2022-10-18T15:41:58.626Z,99777.61
2022-10-18T15:44:34.890Z,99777.64
2022-10-18T15:47:12.172Z,99777.80
2022-10-18T15:49:46.694Z,99778.84
2022-10-18T15:52:38.165Z,99777.90
2022-10-18T15:55:45.412Z,99773.70
2022-10-18T15:58:46.118Z,99778.52
2022-10-18T16:01:23.467Z,99778.50
2022-10-18T16:03:52.117Z,99774.96
2022-10-18T16:06:20.290Z,99773.21
2022-10-18T16:08:51.433Z,99770.76
2022-10-18T16:11:25.036Z,99773.40
2022-10-18T16:13:56.529Z,99769.00
2022-10-18T16:16:29.470Z,99770.60
2022-10-18T16:18:58.053Z,99772.15
2022-10-18T16:21:32.066Z,99777.04
2022-10-18T16:24:00.240Z,99780.67
2022-10-18T16:26:29.418Z,99779.73
2022-10-18T16:28:58.895Z,99780.90
2022-10-18T16:31:29.982Z,99778.02
2022-10-18T16:33:59.384Z,99774.26
2022-10-18T16:36:30.238Z,99768.08
2022-10-18T16:39:01.056Z,99769.38
2022-10-18T16:41:29.249Z,99768.58
2022-10-18T16:43:57.235Z,99769.83
2022-10-18T16:46:31.825Z,99766.34
2022-10-18T16:49:00.870Z,99768.48
2022-10-18T16:51:29.295Z,99772.20
2022-10-18T16:53:57.473Z,99770.12
2022-10-18T16:56:31.689Z,99769.08
2022-10-18T16:59:00.475Z,99768.60
2022-10-18T17:01:28.508Z,99768.83
2022-10-18T17:03:56.619Z,99769.23
2022-10-18T17:06:28.073Z,99773.89
2022-10-18T17:08:57.659Z,99770.96
2022-10-18T17:11:28.514Z,99774.40
2022-10-18T17:13:56.592Z,99776.75
2022-10-18T17:16:30.403Z,99778.22
2022-10-18T17:19:02.255Z,99778.82
2022-10-18T17:21:31.612Z,99784.73
2022-10-18T17:24:02.388Z,99784.01
2022-10-18T17:26:30.829Z,99793.30
2022-10-18T17:29:05.022Z,99789.33
2022-10-18T17:31:33.470Z,99792.83
2022-10-18T17:34:02.430Z,99795.58
2022-10-18T17:36:32.580Z,99798.75
2022-10-18T17:39:00.953Z,99802.42
2022-10-18T17:41:29.429Z,99798.31
2022-10-18T17:43:57.506Z,99799.64
2022-10-18T17:46:25.781Z,99796.40
2022-10-18T17:48:54.160Z,99792.45
2022-10-18T17:51:22.643Z,99791.33
2022-10-18T17:53:50.610Z,99788.43
2022-10-18T17:56:18.784Z,99788.17
2022-10-18T17:58:51.157Z,99787.58
2022-10-18T18:01:22.219Z,99785.89
2022-10-18T18:03:55.901Z,99786.54
2022-10-18T18:06:33.991Z,99781.75
2022-10-18T18:09:08.502Z,99779.21
2022-10-18T18:11:38.446Z,99781.63
2022-10-18T18:14:10.105Z,99776.64
2022-10-18T18:16:38.858Z,99776.60
2022-10-18T18:19:09.647Z,99777.13
2022-10-18T18:21:39.434Z,99777.41
2022-10-18T18:24:08.305Z,99777.17
2022-10-18T18:26:37.318Z,99774.48
2022-10-18T18:29:05.350Z,99781.32
2022-10-18T18:31:39.936Z,99780.92
2022-10-18T18:34:09.710Z,99774.23
2022-10-18T18:36:38.718Z,99778.23
2022-10-18T18:39:09.067Z,99781.86
2022-10-18T18:41:38.594Z,99778.43
2022-10-18T18:44:06.722Z,99779.98
2022-10-18T18:46:39.706Z,99780.13
2022-10-18T18:49:08.539Z,99780.11
2022-10-18T18:51:40.764Z,99777.13
2022-10-18T18:54:11.194Z,99782.06
2022-10-18T18:56:39.262Z,99778.73
2022-10-18T18:59:07.741Z,99779.81
2022-10-18T19:01:37.823Z,99778.27
2022-10-18T19:04:08.084Z,99780.05
2022-10-18T19:06:38.920Z,99782.36
2022-10-18T19:09:18.871Z,99782.05
2022-10-18T19:11:48.067Z,99781.89
2022-10-18T19:14:16.504Z,99780.50
2022-10-18T19:16:50.037Z,99779.98
2022-10-18T19:19:21.396Z,99780.16
2022-10-18T19:21:52.437Z,99780.34
2022-10-18T19:24:22.047Z,99777.70
2022-10-18T19:26:53.086Z,99780.67
2022-10-18T19:29:25.751Z,99782.96
2022-10-18T19:31:56.602Z,99780.36
2022-10-18T19:34:26.619Z,99780.73
2022-10-18T19:36:54.894Z,99789.20
2022-10-18T19:39:24.297Z,99788.50
2022-10-18T19:41:58.102Z,99793.14
2022-10-18T19:44:30.068Z,99796.16
2022-10-18T19:46:58.957Z,99794.64
2022-10-18T19:49:28.842Z,99792.42
2022-10-18T19:51:57.556Z,99795.12
2022-10-18T19:54:26.857Z,99791.15
2022-10-18T19:56:54.927Z,99787.30
2022-10-18T19:59:24.232Z,99789.67
2022-10-18T20:01:52.401Z,99789.38
2022-10-18T20:04:20.577Z,99791.91
2022-10-18T20:06:50.161Z,99792.89
2022-10-18T20:09:20.653Z,99799.11
2022-10-18T20:11:49.000Z,99801.26
2022-10-18T20:14:17.063Z,99803.80
2022-10-18T20:16:45.133Z,99810.59
2022-10-18T20:19:13.203Z,99809.97
2022-10-18T20:21:41.272Z,99807.95
2022-10-18T20:24:10.781Z,99812.06
2022-10-18T20:26:39.709Z,99814.42
2022-10-18T20:29:08.320Z,99816.27
2022-10-18T20:31:39.140Z,99811.22
2022-10-18T20:34:10.644Z,99811.96
2022-10-18T20:36:39.226Z,99815.35
2022-10-18T20:39:07.998Z,99813.29
2022-10-18T20:41:38.747Z,99813.19
2022-10-18T20:44:11.836Z,99822.71
2022-10-18T20:46:40.415Z,99827.84
2022-10-18T20:49:10.744Z,99833.37
2022-10-18T20:51:38.818Z,99834.65
2022-10-18T20:54:09.438Z,99833.27
2022-10-18T20:56:38.969Z,99836.83
2022-10-18T20:59:10.023Z,99840.55
2022-10-18T21:01:39.550Z,99837.26
2022-10-18T21:04:10.233Z,99840.16
2022-10-18T21:06:41.957Z,99842.38
2022-10-18T21:09:12.928Z,99841.34
2022-10-18T21:11:45.101Z,99851.73
2022-10-18T21:14:15.871Z,99852.86
2022-10-18T21:16:44.644Z,99855.20
2022-10-18T21:19:14.328Z,99862.52
2022-10-18T21:21:44.654Z,99867.18
2022-10-18T21:24:14.050Z,99867.04
2022-10-18T21:26:42.434Z,99870.46
2022-10-18T21:29:11.785Z,99872.24
2022-10-18T21:31:41.648Z,99873.65
2022-10-18T21:34:15.943Z,99870.42
2022-10-18T21:36:46.187Z,99864.60
2022-10-18T21:39:18.006Z,99864.70
2022-10-18T21:41:46.598Z,99866.58
2022-10-18T21:44:15.009Z,99863.83
2022-10-18T21:46:43.420Z,99862.55
2022-10-18T21:49:11.447Z,99869.55
2022-10-18T21:51:40.018Z,99874.11
2022-10-18T21:54:12.006Z,99885.25
2022-10-18T21:56:40.486Z,99889.02
2022-10-18T21:59:11.117Z,99899.96
2022-10-18T22:01:40.216Z,99902.86
2022-10-18T22:04:19.363Z,99913.29
2022-10-18T22:06:47.416Z,99925.44
2022-10-18T22:09:15.795Z,99932.23
2022-10-18T22:11:47.963Z,99940.70
2022-10-18T22:14:16.033Z,99938.47
2022-10-18T22:16:44.001Z,99937.44
2022-10-18T22:19:12.278Z,99929.74
2022-10-18T22:21:40.349Z,99934.74
2022-10-18T22:24:09.551Z,99944.06
2022-10-18T22:26:40.178Z,99944.11
2022-10-18T22:29:14.702Z,99946.84
2022-10-18T22:32:02.027Z,99941.69
2022-10-18T22:34:30.094Z,99936.03
2022-10-18T22:36:58.166Z,99937.13
2022-10-18T22:39:26.136Z,99942.09
2022-10-18T22:41:56.563Z,99944.89
2022-10-18T22:44:27.064Z,99949.52
2022-10-18T22:46:55.061Z,99951.38
2022-10-18T22:49:23.135Z,99952.98
2022-10-18T22:51:51.202Z,99958.91
2022-10-18T22:54:19.273Z,99963.98
2022-10-18T22:56:47.345Z,99964.33
2022-10-18T22:59:15.422Z,99963.31
2022-10-18T23:01:43.386Z,99965.98
2022-10-18T23:04:11.457Z,99965.47
2022-10-18T23:06:40.027Z,99964.58
2022-10-18T23:09:10.882Z,99966.16
2022-10-18T23:11:39.059Z,99970.19
2022-10-18T23:14:07.328Z,99968.83
2022-10-18T23:16:35.785Z,99972.56
2022-10-18T23:19:04.400Z,99971.31
2022-10-18T23:21:33.998Z,99969.47
2022-10-18T23:24:01.969Z,99968.89
2022-10-18T23:26:29.936Z,99964.66
2022-10-18T23:28:58.061Z,99963.95
2022-10-18T23:31:33.131Z,99964.47
2022-10-18T23:34:03.777Z,99969.73
2022-10-18T23:36:33.877Z,99970.44
2022-10-18T23:39:03.594Z,99974.14
2022-10-18T23:41:31.574Z,99980.11
2022-10-18T23:43:59.747Z,99982.73
2022-10-18T23:46:28.536Z,99982.05
2022-10-18T23:48:56.505Z,99983.63
2022-10-18T23:51:24.474Z,99979.59
2022-10-18T23:53:52.545Z,99982.06
2022-10-18T23:56:20.617Z,99983.86
2022-10-18T23:58:48.586Z,99985.85
